Flight Track Log - Related Links

Times and Time Zones

All times are in EDT time to prevent confusion due to time zone crossing. See the JIA2502 flight status page for this flight to view local times or setup timezone preferences in your user account.

Time Position Orientation Groundspeed Altitude Reporting Facility
EDT Latitude Longitude Course Direction KTS MPH feet Rate Location/Type
Sun 01:46:14 PM 36.1500 -86.6500 68° East 160 184 1,400  Level Nashville TRACON
Sun 01:47:20 PM 36.1667 -86.6000 68° East 219 252 3,800 1,714 Climbing Nashville TRACON
Sun 01:48:20 PM 36.1833 -86.5000 78° East 287 330 5,000 600 Climbing Nashville TRACON
Sun 01:49:00 PM 36.1899 -86.1270 78° East  Level FlightAware Approximate
Sun 01:49:20 PM 36.1833 -86.4000 90° East 299 344 5,000  Level Nashville TRACON
Sun 01:50:00 PM 36.2271 -85.9988 64° Northeast  Level FlightAware Approximate
Sun 01:50:38 PM 36.1936 -86.2756 84° East 333 383 8,100  Level Memphis Center
Sun 01:51:00 PM 36.2750 -85.8749 68° East  Level FlightAware Approximate
Sun 01:51:38 PM 36.1964 -86.1725 88° East 312 359 10,400  Level Memphis Center
Sun 01:52:38 PM 36.2053 -86.0692 84° East 304 350 12,600 2,050 Climbing Memphis Center
Sun 01:53:38 PM 36.2478 -85.9744 61° Northeast 304 350 14,500 1,636 Climbing Memphis Center
Sun 01:54:50 PM 36.2958 -85.8564 63° Northeast 329 379 16,200 1,444 Climbing Indianapolis Center
Sun 01:55:51 PM 36.3478 -85.7458 60° Northeast 344 396 17,700 1,435 Climbing Indianapolis Center
Sun 01:57:54 PM 36.4525 -85.5281 59° Northeast 370 426 20,600 1,272 Climbing Indianapolis Center
Sun 01:58:55 PM 36.5047 -85.4167 60° Northeast 370 426 21,600 878 Climbing Indianapolis Center
Sun 01:59:57 PM 36.5581 -85.3019 60° Northeast 379 436 22,400 878 Climbing Indianapolis Center
Sun 02:00:58 PM 36.6131 -85.1817 60° Northeast 395 455 23,400 878 Climbing Indianapolis Center
Sun 02:02:00 PM 36.6539 -85.0531 68° East 397 457 24,200 732 Climbing Indianapolis Center
Sun 02:03:01 PM 36.6950 -84.9200 69° East 408 470 24,900 732 Climbing Indianapolis Center
Sun 02:04:03 PM 36.7367 -84.7853 69° East 415 478 25,700 683 Climbing Indianapolis Center
Sun 02:05:04 PM 36.7783 -84.6492 69° East 418 481 26,300 537 Climbing Indianapolis Center
Sun 02:06:06 PM 36.8231 -84.4978 70° East 434 499 26,800 488 Climbing Indianapolis Center
Sun 02:07:07 PM 36.8669 -84.3519 69° East 444 511 27,300 492 Climbing Indianapolis Center
Sun 02:08:08 PM 36.9122 -84.2039 69° East 452 520 27,800 537 Climbing Indianapolis Center
Sun 02:09:10 PM 36.9628 -84.0278 70° East 461 531 28,400 537 Climbing Indianapolis Center
Sun 02:10:11 PM 37.0075 -83.8772 70° East 460 529 28,900 522 Climbing Indianapolis Center
Sun 02:12:14 PM 37.0989 -83.5725 69° East 467 537 30,000 681 Climbing Indianapolis Center
Sun 02:13:16 PM 37.1425 -83.4203 70° East 460 529 31,000 488 Climbing Indianapolis Center
Sun 02:14:17 PM 37.1861 -83.2719 70° East 453 521 31,000  Level Indianapolis Center
Sun 02:15:19 PM 37.2286 -83.1211 70° East 454 522 31,000  Level Indianapolis Center
Sun 02:17:00 PM 37.2816 -82.9065 70° East  Level FlightAware Approximate
Sun 02:17:22 PM 37.3142 -82.8228 70° East 448 516 31,000  Level Indianapolis Center
Sun 02:18:23 PM 37.3567 -82.6744 70° East 448 516 31,000  Level Indianapolis Center
Sun 02:19:24 PM 37.4061 -82.5017 70° East 447 514 31,000  Level Indianapolis Center
Sun 02:20:26 PM 37.4453 -82.3578 71° East 435 501 31,000  Level Indianapolis Center
Sun 02:21:28 PM 37.4847 -82.2164 71° East 428 493 31,000  Level Indianapolis Center
Sun 02:22:29 PM 37.5247 -82.0736 71° East 431 496 31,000  Level Indianapolis Center
Sun 02:23:31 PM 37.5647 -81.9306 71° East 431 496 31,000  Level Indianapolis Center
Sun 02:24:32 PM 37.6033 -81.7872 71° East 431 496 31,000  Level Indianapolis Center
Sun 02:25:34 PM 37.6419 -81.6433 71° East 433 498 31,000  Level Indianapolis Center
Sun 02:26:35 PM 37.6822 -81.4914 71° East 435 501 31,000  Level Indianapolis Center
Sun 02:27:37 PM 37.7256 -81.3344 71° East 437 503 31,000  Level Indianapolis Center
Sun 02:28:38 PM 37.7633 -81.1944 71° East 434 499 31,000  Level Indianapolis Center
Sun 02:29:40 PM 37.7858 -81.0497 79° East 431 496 31,000  Level Indianapolis Center
Sun 02:30:41 PM 37.7944 -80.9061 86° East 423 487 31,000  Level Indianapolis Center
Sun 02:31:43 PM 37.8072 -80.7336 85° East 423 487 31,000  Level Indianapolis Center
Sun 02:33:11 PM 37.8211 -80.5342 85° East 419 482 31,000  Level Washington Center
Sun 02:34:12 PM 37.8292 -80.3850 86° East 419 482 31,000  Level Washington Center
Sun 02:35:12 PM 37.8392 -80.2383 85° East 419 482 31,000  Level Washington Center
Sun 02:36:10 PM 37.8497 -80.0706 85° East 424 488 31,000  Level Washington Center
Sun 02:37:10 PM 37.8594 -79.9239 85° East 424 488 31,000  Level Washington Center
Sun 02:38:11 PM 37.8689 -79.7744 85° East 419 482 31,000  Level Washington Center
Sun 02:39:12 PM 37.8761 -79.6250 86° East 419 482 31,000  Level Washington Center
Sun 02:40:09 PM 37.9081 -79.4767 75° East 424 488 31,000  Level Washington Center
Sun 02:41:11 PM 37.9497 -79.3469 68° East 441 507 31,000  Level Washington Center
Sun 02:42:12 PM 37.9939 -79.2017 69° East 441 507 31,000  Level Washington Center
Sun 02:43:12 PM 38.0583 -79.0650 59° Northeast 441 507 31,000  Level Washington Center
Sun 02:44:10 PM 38.1369 -78.9419 51° Northeast 450 518 31,000  Level Washington Center
Sun 02:45:10 PM 38.2261 -78.8031 51° Northeast 455 524 31,000  Level Washington Center
Sun 02:46:11 PM 38.2939 -78.6897 53° Northeast 455 524 31,000  Level Washington Center
Sun 02:47:11 PM 38.3719 -78.5683 51° Northeast 455 524 31,000  Level Washington Center
Sun 02:48:12 PM 38.4503 -78.4364 53° Northeast 455 524 31,000  Level Washington Center
Sun 02:49:09 PM 38.4911 -78.2919 70° East 436 502 31,000  Level Washington Center
Sun 02:50:10 PM 38.5153 -78.1389 79° East 426 490 31,000  Level Washington Center
Sun 02:51:11 PM 38.5536 -77.9969 71° East 426 490 31,000 -295 Level Washington Center
Sun 02:52:12 PM 38.6717 -77.9422 20° North 392 451 30,400 -1,210 Descending Washington Center
Sun 02:53:10 PM 38.7872 -77.8875 20° North 410 472 28,600 -1,210 Descending Washington Center
Sun 02:54:11 PM 38.9053 -77.8244 23° Northeast 444 511 28,000 -198 Descending Washington Center
Sun 02:56:12 PM 39.1408 -77.7003 22° Northeast 432 497 28,000 -268 Level Washington Center
Sun 02:57:10 PM 39.2525 -77.6394 23° Northeast 437 503 27,200 -966 Descending Washington Center
Sun 02:58:10 PM 39.3661 -77.5781 23° Northeast 437 503 26,100 -1,893 Descending Washington Center
Sun 03:00:17 PM 39.6011 -77.4508 24° Northeast 432 497 21,300 -1,654 Descending New York Center
Sun 03:01:00 PM 39.5381 -77.4794 24° Northeast  Level FlightAware Approximate
Sun 03:01:15 PM 39.6956 -77.4031 21° North 417 480 21,000  Level New York Center
Sun 03:03:16 PM 39.8083 -77.1758 57° Northeast 366 421 19,900 -758 Descending New York Center
Sun 03:04:17 PM 39.8553 -77.0369 66° East 372 428 18,700 -1,173 Descending New York Center
Sun 03:06:15 PM 39.9408 -76.7981 65° Northeast 366 421 16,400 -1,106 Descending New York Center
Sun 03:07:16 PM 39.9814 -76.6931 63° Northeast 361 415 15,400 -793 Descending New York Center
Sun 03:08:16 PM 40.0211 -76.5664 68° East 347 399 14,800 -744 Descending New York Center
Sun 03:09:17 PM 40.0308 -76.4506 84° East 334 384 13,900 -958 Descending New York Center
Sun 03:10:15 PM 40.0381 -76.3453 85° East 329 379 12,900 -1,017 Descending New York Center
Sun 03:11:15 PM 40.0475 -76.2294 84° East 329 379 11,900 -1,041 Descending New York Center
Sun 03:12:16 PM 40.0578 -76.1000 84° East 329 379 10,800 -1,200 Descending New York Center
Sun 03:13:15 PM 40.0650 -75.9867 85° East 324 373 9,500 -950 Descending New York Center
Sun 03:14:16 PM 40.0711 -75.8950 85° East 296 341 8,900 -738 Descending New York Center
Sun 03:15:17 PM 40.0497 -75.8067 108° East 227 261 8,000 -908 Descending New York Center
Sun 03:16:15 PM 39.9975 -75.7594 145° Southeast 217 250 7,100 -1,000 Descending New York Center
Sun 03:17:17 PM 39.9433 -75.7122 146° Southeast 228 262 6,000 -984 Descending New York Center
Sun 03:18:17 PM 39.8928 -75.6708 148° Southeast 223 257 5,100 -966 Descending New York Center
Sun 03:19:15 PM 39.8500 -75.6167 136° Southeast 214 246 4,100 -969 Descending Philadelphia TRACON
Sun 03:20:27 PM 39.8167 -75.5333 117° Southeast 216 249 3,000 -917 Descending Philadelphia TRACON

Login

Don't have an account? Register now (free) for customized features, flight alerts, and more!